Česky Dansk Deutsch English Español Suomi Français Magyar Italiano Nederlands norsk Polski Português svenska Türkçe

 

Het Weer

Kirkwall Airport (Groot Britanië)

19:20, 4 augustus 2016 (GMT)

NWNNE
WE
SWSSE
Home            
Kirkwall Airport Wick Sumburgh Cape Lossiemouth Tain Range Kinloss Inverness / Dalcross Scatsa / Shetland Island Aberdeen / Dyce Stornoway Unst Island Dundee / Riverside Perth / Scone Leuchars Frigg Benbecula Edinburgh Airport Glasgow Airport Gullfax Platform Tiree Prestwick Airport Boulmer Islay

Om een weerknop op uw website of weblog te plaatsen, copieer onderstaande code en plak die in uw pagina. In het eerste vakje staat HTML-code, in het tweede vakje UBB-code.


Add to Google

Details

Wind speed:4 bf, 14 kn, 7.2 m/s, 16.1 miles/h, 25.9 km/h
Wind direction:NNW, 340°
Visibility:Greater than 10000 m, 10 km, 32800 ft, 6.2 miles
Clouds:Ein wenig bewölkt at 1800 ft, 549 m
Temperature:13°C, 55°F
Dew-point:9°C, 48°F
Atmospheric pressure:1010 hPa, 757.6 mmHg, 29.83 inHg, 0.997 atm
Relative humidity:76.7 %
METAR:EGPA 041920Z 34014KT 9999 FEW018 13/09 Q1010

Snelkoppelingen

Actuele weersinformatie van de hele wereld. Voeg locaties toe met het plus (+) symbool. Deze snelkoppelingen kunnen worden toegevoegd aan Google.

Lid van de Technetium groep

website free tracking
StatCounter NetStat W3C Validator

07-03-2021 04:27:19
astro.technetium.be money.technetium.be phote.technetium.be tafeltennistafel.technetium.be www.ligfiets.net